Flight Track Log - Related Links

Times and Time Zones

All times are in EDT time to prevent confusion due to time zone crossing. See the AAL2461 flight status page for this flight to view local times or setup timezone preferences in your user account.

Time Position Orientation Groundspeed Altitude Reporting Facility
EDT Latitude Longitude Course Direction KTS MPH feet Rate Location/Type
Thu 07:02:13 PM 32.8440 -97.0560 180° South 210 242 3,200  Level FlightAware ADS-B
Thu 07:02:38 PM 32.8220 -97.0560 180° South 221 254 4,300 2,509 Climbing FlightAware ADS-B
Thu 07:03:08 PM 32.7870 -97.0570 181° South 259 298 5,500 2,760 Climbing FlightAware ADS-B
Thu 07:03:28 PM 32.7610 -97.0570 180° South 269 310 6,600 3,491 Climbing FlightAware ADS-B
Thu 07:04:03 PM 32.7200 -97.0630 187° South 260 299 8,700 3,480 Climbing FlightAware ADS-B
Thu 07:04:18 PM 32.7050 -97.0760 216° Southwest 257 296 9,500 2,640 Climbing FlightAware ADS-B
Thu 07:04:28 PM 32.6980 -97.0880 235° Southwest 258 297 9,800 1,200 Climbing FlightAware ADS-B
Thu 07:04:43 PM 32.6920 -97.1060 248° West 259 298 10,000 400 Climbing FlightAware ADS-B
Thu 07:05:13 PM 32.6990 -97.1500 281° West 256 295 10,100 86 Climbing FlightAware ADS-B
Thu 07:05:53 PM 32.7130 -97.1990 289° West 250 288 10,100  Level FlightAware ADS-B
Thu 07:06:38 PM 32.7310 -97.2610 289° West 251 289 10,100 1,200 Level FlightAware ADS-B
Thu 07:07:18 PM 32.7460 -97.3140 289° West 258 297 11,800 2,925 Climbing FlightAware ADS-B
Thu 07:07:58 PM 32.7610 -97.3680 288° West 265 305 14,000 3,318 Climbing FlightAware ADS-B
Thu 07:08:43 PM 32.7790 -97.4310 289° West 268 308 16,500 3,035 Climbing FlightAware ADS-B
Thu 07:09:23 PM 32.7940 -97.4820 289° West 273 314 18,300 2,824 Climbing FlightAware ADS-B
Thu 07:10:08 PM 32.8140 -97.5530 289° West 293 337 20,500 2,824 Climbing FlightAware ADS-B
Thu 07:10:48 PM 32.8310 -97.6130 289° West 297 342 22,300 2,175 Climbing FlightAware ADS-B
Thu 07:11:28 PM 32.8510 -97.6730 292° West 319 367 23,400 1,800 Climbing FlightAware ADS-B
Thu 07:12:28 PM 32.8870 -97.7770 292° West 342 394 25,300 1,920 Climbing FlightAware ADS-B
Thu 07:13:08 PM 32.9110 -97.8470 292° West 349 402 26,600 1,467 Climbing FlightAware ADS-B
Thu 07:13:58 PM 32.9410 -97.9340 292° West 353 406 27,500 1,380 Climbing FlightAware ADS-B
Thu 07:14:48 PM 32.9720 -98.0250 292° West 364 419 28,900 2,250 Climbing FlightAware ADS-B
Thu 07:15:18 PM 32.9920 -98.0840 292° West 376 433 30,500 1,765 Climbing FlightAware ADS-B
Thu 07:16:13 PM 33.0280 -98.1880 292° West 379 436 31,400 568 Climbing FlightAware ADS-B
Thu 07:16:53 PM 33.0500 -98.2540 292° West 379 436 31,400 2,100 Level FlightAware ADS-B
Thu 07:17:33 PM 33.0840 -98.3540 292° West 383 441 34,200 2,894 Climbing FlightAware ADS-B
Thu 07:18:18 PM 33.1120 -98.4380 292° West 378 435 35,500 1,080 Climbing FlightAware ADS-B
Thu 07:19:13 PM 33.1490 -98.5460 292° West 379 436 36,000 316 Climbing FlightAware ADS-B
Thu 07:19:53 PM 33.1730 -98.6170 292° West 376 433 36,000  Level FlightAware ADS-B
Thu 07:20:38 PM 33.2040 -98.7110 292° West 370 426 36,000  Level FlightAware ADS-B
Thu 07:21:18 PM 33.2290 -98.7860 292° West 369 425 36,000  Level FlightAware ADS-B
Thu 07:22:13 PM 33.2630 -98.8880 292° West 370 426 36,000  Level FlightAware ADS-B
Thu 07:23:13 PM 33.3020 -99.0040 292° West 371 427 36,000  Level FlightAware ADS-B
Thu 07:23:53 PM 33.3270 -99.0790 292° West 373 429 36,000  Level FlightAware ADS-B
Thu 07:24:28 PM 33.3470 -99.1410 291° West 373 429 36,000  Level FlightAware ADS-B
Thu 07:25:18 PM 33.3730 -99.2230 291° West 373 429 36,000  Level FlightAware ADS-B
Thu 07:25:58 PM 33.3940 -99.2880 291° West 373 429 36,000  Level FlightAware ADS-B
Thu 07:26:38 PM 33.4150 -99.3540 291° West 373 429 36,000  Level FlightAware ADS-B
Thu 07:27:18 PM 33.4360 -99.4200 291° West 373 429 36,000  Level FlightAware ADS-B
Thu 07:27:58 PM 33.4570 -99.4850 291° West 373 429 36,000  Level FlightAware ADS-B
Thu 07:28:48 PM 33.4830 -99.5670 291° West 373 429 36,000  Level FlightAware ADS-B
Thu 07:29:28 PM 33.5040 -99.6330 291° West 373 429 36,000  Level FlightAware ADS-B
Thu 07:30:08 PM 33.5250 -99.6990 291° West 373 429 36,000  Level FlightAware ADS-B
Thu 07:30:48 PM 33.5460 -99.7640 291° West 373 429 36,000  Level FlightAware ADS-B
Thu 07:31:28 PM 33.5670 -99.8300 291° West 373 429 36,000  Level FlightAware ADS-B
Thu 07:32:18 PM 33.5940 -99.9120 292° West 373 429 36,000  Level FlightAware ADS-B
Thu 07:32:58 PM 33.6150 -99.9780 291° West 373 429 36,000  Level FlightAware ADS-B
Thu 07:33:38 PM 33.6360 -100.0440 291° West 373 429 36,000  Level FlightAware ADS-B
Thu 07:33:55 PM 33.7050 -100.2447 291° West 378 435 36,000  Level Fort Worth Center
Thu 07:34:55 PM 33.7419 -100.3633 291° West 378 435 36,000  Level Fort Worth Center
Thu 07:35:55 PM 33.7789 -100.4772 291° West 378 435 36,000  Level Fort Worth Center
Thu 07:36:55 PM 33.8178 -100.5936 292° West 373 429 36,000  Level Fort Worth Center
Thu 07:37:55 PM 33.8522 -100.7097 290° West 373 429 36,000  Level Fort Worth Center
Thu 07:38:56 PM 33.8869 -100.8236 290° West 373 429 36,000  Level Fort Worth Center
Thu 07:39:55 PM 33.9233 -100.9378 291° West 373 429 36,000  Level Fort Worth Center
Thu 07:40:55 PM 33.9614 -101.0619 290° West 374 430 36,000  Level Fort Worth Center
Thu 07:41:55 PM 33.9956 -101.1761 290° West 369 425 36,000  Level Fort Worth Center
Thu 07:42:55 PM 34.0319 -101.2881 291° West 369 425 36,000  Level Fort Worth Center
Thu 07:43:55 PM 34.0658 -101.3997 290° West 364 419 36,000  Level Fort Worth Center
Thu 07:44:56 PM 34.1019 -101.5144 291° West 357 411 36,000  Level Fort Worth Center
Thu 07:45:55 PM 34.1317 -101.6211 289° West 352 405 36,000  Level Fort Worth Center
Thu 07:46:55 PM 34.1675 -101.7358 291° West 357 411 36,000  Level Fort Worth Center
Thu 07:47:55 PM 34.2031 -101.8481 291° West 357 411 36,000  Level Fort Worth Center
Thu 07:48:55 PM 34.2325 -101.9600 288° West 357 411 36,000  Level Fort Worth Center
Thu 07:49:55 PM 34.2661 -102.0697 290° West 357 411 36,000  Level Fort Worth Center
Thu 07:50:56 PM 34.3014 -102.1825 291° West 352 405 36,000  Level Fort Worth Center
Thu 07:51:15 PM 34.3092 -102.2075 291° West 355 409 36,000  Level Albuquerque Center
Thu 07:52:17 PM 34.3433 -102.3206 290° West 357 411 36,000  Level Albuquerque Center
Thu 07:53:18 PM 34.3772 -102.4336 290° West 356 410 36,000  Level Albuquerque Center
Thu 07:54:20 PM 34.4103 -102.5475 289° West 357 411 36,000  Level Albuquerque Center
Thu 07:55:22 PM 34.4503 -102.6853 289° West 360 414 36,000  Level Albuquerque Center
Thu 07:56:24 PM 34.4844 -102.8022 290° West 365 420 36,000  Level Albuquerque Center
Thu 07:57:25 PM 34.5075 -102.9108 284° West 361 415 36,000  Level Albuquerque Center
Thu 07:58:27 PM 34.5267 -103.0311 281° West 361 415 36,000  Level Albuquerque Center
Thu 07:59:29 PM 34.5467 -103.1728 280° West 362 417 36,000  Level Albuquerque Center
Thu 08:00:30 PM 34.5664 -103.2956 281° West 365 420 36,000  Level Albuquerque Center
Thu 08:01:32 PM 34.5844 -103.4169 280° West 363 418 36,000  Level Albuquerque Center
Thu 08:02:34 PM 34.6014 -103.5389 280° West 364 419 36,000  Level Albuquerque Center
Thu 08:03:36 PM 34.6206 -103.6597 281° West 361 415 36,000  Level Albuquerque Center
Thu 08:04:38 PM 34.6378 -103.7819 280° West 362 417 36,000  Level Albuquerque Center
Thu 08:05:40 PM 34.6558 -103.9042 280° West 363 418 36,000  Level Albuquerque Center
Thu 08:06:41 PM 34.6739 -104.0272 280° West 365 420 36,000  Level Albuquerque Center
Thu 08:07:43 PM 34.6911 -104.1506 280° West 366 421 36,000  Level Albuquerque Center
Thu 08:08:45 PM 34.7086 -104.2733 280° West 365 420 36,000  Level Albuquerque Center
Thu 08:09:47 PM 34.7292 -104.4172 280° West 365 420 36,000  Level Albuquerque Center
Thu 08:10:49 PM 34.7472 -104.5419 280° West 368 423 36,000  Level Albuquerque Center
Thu 08:11:50 PM 34.7642 -104.6664 279° West 369 425 36,000  Level Albuquerque Center
Thu 08:12:52 PM 34.7814 -104.7903 280° West 368 423 36,000  Level Albuquerque Center
Thu 08:13:54 PM 34.7986 -104.9131 280° West 365 420 36,000  Level Albuquerque Center
Thu 08:14:56 PM 34.8161 -105.0347 280° West 363 418 36,000  Level Albuquerque Center
Thu 08:21:13 PM 34.9180 -105.8070 280° West 367 422 36,000  Level FlightAware ADS-B
Thu 08:21:53 PM 34.9260 -105.8780 278° West 368 423 36,000  Level FlightAware ADS-B
Thu 08:22:33 PM 34.9340 -105.9480 278° West 368 423 36,000  Level FlightAware ADS-B
Thu 08:23:23 PM 34.9510 -106.0670 280° West 368 423 36,000  Level FlightAware ADS-B
Thu 08:24:03 PM 34.9630 -106.1540 280° West 369 425 36,000  Level FlightAware ADS-B
Thu 08:24:48 PM 34.9740 -106.2460 278° West 369 425 36,000  Level FlightAware ADS-B
Thu 08:25:28 PM 34.9840 -106.3260 279° West 370 426 36,000  Level FlightAware ADS-B
Thu 08:26:08 PM 34.9950 -106.4100 279° West 371 427 36,000  Level FlightAware ADS-B
Thu 08:26:53 PM 35.0070 -106.5040 279° West 372 428 36,000  Level FlightAware ADS-B
Thu 08:27:33 PM 35.0170 -106.5860 278° West 371 427 36,000  Level FlightAware ADS-B
Thu 08:28:18 PM 35.0280 -106.6790 278° West 370 426 36,000  Level FlightAware ADS-B
Thu 08:28:58 PM 35.0380 -106.7600 279° West 370 426 36,000  Level FlightAware ADS-B
Thu 08:29:38 PM 35.0430 -106.8430 274° West 368 423 36,000  Level FlightAware ADS-B
Thu 08:30:23 PM 35.0420 -106.9390 269° West 368 423 36,000  Level FlightAware ADS-B
Thu 08:31:03 PM 35.0390 -107.0200 267° West 368 423 36,000  Level FlightAware ADS-B
Thu 08:31:43 PM 35.0370 -107.1040 268° West 367 422 36,000  Level FlightAware ADS-B
Thu 08:32:28 PM 35.0350 -107.1960 269° West 369 425 36,000  Level FlightAware ADS-B
Thu 08:33:08 PM 35.0320 -107.2780 267° West 368 423 36,000  Level FlightAware ADS-B
Thu 08:33:53 PM 35.0290 -107.3750 268° West 370 426 36,000  Level FlightAware ADS-B
Thu 08:34:33 PM 35.0270 -107.4560 268° West 371 427 36,000  Level FlightAware ADS-B
Thu 08:35:13 PM 35.0240 -107.5420 268° West 372 428 36,000  Level FlightAware ADS-B
Thu 08:35:58 PM 35.0210 -107.6330 268° West 373 429 36,000  Level FlightAware ADS-B
Thu 08:36:38 PM 35.0190 -107.7160 268° West 372 428 36,000  Level FlightAware ADS-B
Thu 08:37:23 PM 35.0150 -107.8140 267° West 374 430 36,000  Level FlightAware ADS-B
Thu 08:38:03 PM 35.0130 -107.8940 268° West 373 429 36,000  Level FlightAware ADS-B
Thu 08:38:43 PM 35.0090 -107.9820 267° West 373 429 36,000  Level FlightAware ADS-B
Thu 08:39:28 PM 35.0060 -108.0750 268° West 374 430 36,000  Level FlightAware ADS-B
Thu 08:40:23 PM 35.0020 -108.1920 268° West 376 433 36,000  Level FlightAware ADS-B
Thu 08:41:03 PM 34.9990 -108.2760 268° West 377 434 36,000  Level FlightAware ADS-B
Thu 08:41:48 PM 34.9950 -108.3680 267° West 377 434 36,000  Level FlightAware ADS-B
Thu 08:42:28 PM 34.9910 -108.4550 267° West 377 434 36,000  Level FlightAware ADS-B
Thu 08:43:08 PM 34.9880 -108.5400 268° West 376 433 36,000  Level FlightAware ADS-B
Thu 08:43:48 PM 34.9850 -108.6170 267° West 376 433 36,000  Level FlightAware ADS-B
Thu 08:44:28 PM 34.9820 -108.6890 267° West 376 433 36,000  Level FlightAware ADS-B
Thu 08:45:18 PM 34.9760 -108.8140 267° West 371 427 36,000  Level FlightAware ADS-B
Thu 08:45:58 PM 34.9730 -108.8960 267° West 370 426 36,000  Level FlightAware ADS-B
Thu 08:46:38 PM 34.9690 -108.9800 267° West 369 425 36,000  Level FlightAware ADS-B
Thu 08:47:18 PM 34.9650 -109.0570 266° West 368 423 36,000  Level FlightAware ADS-B
Thu 08:47:58 PM 34.9610 -109.1410 267° West 368 423 36,000  Level FlightAware ADS-B
Thu 08:48:43 PM 34.9560 -109.2240 266° West 368 423 36,000  Level FlightAware ADS-B
Thu 08:49:33 PM 34.9510 -109.3120 266° West 368 423 36,000  Level FlightAware ADS-B
Thu 08:50:13 PM 34.9470 -109.3830 266° West 368 423 36,000  Level FlightAware ADS-B
Thu 08:50:53 PM 34.9430 -109.4530 266° West 368 423 36,000  Level FlightAware ADS-B
Thu 08:51:33 PM 34.9390 -109.5230 266° West 368 423 36,000  Level FlightAware ADS-B
Thu 08:52:13 PM 34.9350 -109.5940 266° West 368 423 36,000  Level FlightAware ADS-B
Thu 08:53:03 PM 34.9300 -109.6820 266° West 368 423 36,000  Level FlightAware ADS-B
Thu 08:53:43 PM 34.9260 -109.7520 266° West 368 423 36,000  Level FlightAware ADS-B
Thu 08:54:23 PM 34.9220 -109.8230 266° West 368 423 36,000  Level FlightAware ADS-B
Thu 08:55:03 PM 34.9180 -109.8930 266° West 368 423 36,000  Level FlightAware ADS-B
Thu 08:55:43 PM 34.9140 -109.9640 266° West 368 423 36,000  Level FlightAware ADS-B
Thu 08:56:33 PM 34.9090 -110.0520 266° West 368 423 36,000  Level FlightAware ADS-B
Thu 08:57:13 PM 34.9050 -110.1220 266° West 368 423 36,000  Level FlightAware ADS-B
Thu 08:57:53 PM 34.9010 -110.1930 266° West 368 423 36,000  Level FlightAware ADS-B
Thu 09:02:38 PM 34.7910 -110.9590 260° West 372 428 36,000  Level FlightAware ADS-B
Thu 09:03:18 PM 34.7810 -111.0440 262° West 373 429 36,000  Level FlightAware ADS-B
Thu 09:03:53 PM 34.7720 -111.1100 261° West 373 429 36,000  Level FlightAware ADS-B
Thu 09:04:43 PM 34.7610 -111.1980 261° West 373 429 36,000  Level FlightAware ADS-B
Thu 09:05:23 PM 34.7480 -111.2970 261° West 372 428 36,000  Level FlightAware ADS-B
Thu 09:06:08 PM 34.7360 -111.3940 261° West 372 428 36,000  Level FlightAware ADS-B
Thu 09:06:43 PM 34.7270 -111.4630 261° West 373 429 36,000  Level FlightAware ADS-B
Thu 09:07:28 PM 34.7140 -111.5570 260° West 375 432 36,000  Level FlightAware ADS-B
Thu 09:08:13 PM 34.7030 -111.6450 261° West 375 432 36,000  Level FlightAware ADS-B
Thu 09:08:53 PM 34.6910 -111.7390 261° West 377 434 36,000  Level FlightAware ADS-B
Thu 09:09:33 PM 34.6790 -111.8230 260° West 378 435 36,000  Level FlightAware ADS-B
Thu 09:10:28 PM 34.6640 -111.9360 261° West 379 436 36,000  Level FlightAware ADS-B
Thu 09:11:13 PM 34.6520 -112.0290 261° West 380 437 36,000  Level FlightAware ADS-B
Thu 09:11:53 PM 34.6400 -112.1160 261° West 382 440 36,000  Level FlightAware ADS-B
Thu 09:12:38 PM 34.6270 -112.2100 260° West 382 440 36,000  Level FlightAware ADS-B
Thu 09:13:18 PM 34.6160 -112.2940 261° West 383 441 36,000  Level FlightAware ADS-B
Thu 09:14:03 PM 34.6030 -112.3890 261° West 384 442 36,000  Level FlightAware ADS-B
Thu 09:14:43 PM 34.5910 -112.4760 261° West 384 442 36,000  Level FlightAware ADS-B
Thu 09:15:23 PM 34.5790 -112.5610 260° West 384 442 36,000  Level FlightAware ADS-B
Thu 09:16:08 PM 34.5660 -112.6540 260° West 385 443 36,000  Level FlightAware ADS-B
Thu 09:16:48 PM 34.5540 -112.7390 260° West 385 443 36,000  Level FlightAware ADS-B
Thu 09:17:33 PM 34.5410 -112.8340 261° West 385 443 36,000  Level FlightAware ADS-B
Thu 09:18:13 PM 34.5280 -112.9220 260° West 386 444 36,000  Level FlightAware ADS-B
Thu 09:18:58 PM 34.5150 -113.0160 260° West 385 443 36,000  Level FlightAware ADS-B
Thu 09:19:38 PM 34.5030 -113.1020 260° West 384 442 36,000  Level FlightAware ADS-B
Thu 09:20:18 PM 34.4910 -113.1860 260° West 385 443 36,000  Level FlightAware ADS-B
Thu 09:21:03 PM 34.4770 -113.2840 260° West 384 442 36,000  Level FlightAware ADS-B
Thu 09:21:43 PM 34.4650 -113.3680 260° West 384 442 36,000  Level FlightAware ADS-B
Thu 09:22:23 PM 34.4530 -113.4490 260° West 383 441 36,000  Level FlightAware ADS-B
Thu 09:22:58 PM 34.4430 -113.5200 260° West 384 442 36,000  Level FlightAware ADS-B
Thu 09:23:48 PM 34.4270 -113.6270 260° West 384 442 36,000  Level FlightAware ADS-B
Thu 09:24:33 PM 34.4120 -113.7270 260° West 388 447 36,000  Level FlightAware ADS-B
Thu 09:25:13 PM 34.4010 -113.8070 261° West 386 444 36,000  Level FlightAware ADS-B
Thu 09:25:48 PM 34.3890 -113.8840 259° West 384 442 36,000  Level FlightAware ADS-B
Thu 09:26:33 PM 34.3770 -113.9690 260° West 384 442 36,000  Level FlightAware ADS-B
Thu 09:27:13 PM 34.3620 -114.0660 259° West 381 438 36,000  Level FlightAware ADS-B
Thu 09:28:03 PM 34.3470 -114.1690 260° West 379 436 36,000  Level FlightAware ADS-B
Thu 09:28:43 PM 34.3340 -114.2530 259° West 380 437 36,000  Level FlightAware ADS-B
Thu 09:29:23 PM 34.3210 -114.3370 259° West 381 438 36,000  Level FlightAware ADS-B
Thu 09:30:23 PM 34.3030 -114.4530 259° West 379 436 36,000  Level FlightAware ADS-B
Thu 09:31:03 PM 34.2920 -114.5230 259° West 379 436 36,000  Level FlightAware ADS-B
Thu 09:31:43 PM 34.2800 -114.5940 258° West 379 436 36,000  Level FlightAware ADS-B
Thu 09:32:23 PM 34.2690 -114.6650 259° West 379 436 36,000  Level FlightAware ADS-B
Thu 09:33:03 PM 34.2550 -114.7700 261° West 343 395 36,000  Level FlightAware ADS-B
Thu 09:34:03 PM 34.2380 -114.8780 259° West 339 390 36,000 -400 Level FlightAware ADS-B
Thu 09:34:48 PM 34.2250 -114.9650 260° West 344 396 35,300 -780 Descending FlightAware ADS-B
Thu 09:35:43 PM 34.2220 -115.0660 268° West 337 388 34,700 -600 Descending FlightAware ADS-B
Thu 09:36:28 PM 34.2300 -115.1480 277° West 338 389 34,300 -282 Descending FlightAware ADS-B
Thu 09:37:08 PM 34.2370 -115.2110 278° West 338 389 34,300 -2,550 Level FlightAware ADS-B
Thu 09:37:48 PM 34.2290 -115.3150 265° West 385 443 30,900 -2,965 Descending FlightAware ADS-B
Thu 09:38:33 PM 34.2130 -115.4140 259° West 381 438 30,100 -1,050 Descending FlightAware ADS-B
Thu 09:39:08 PM 34.2020 -115.4810 259° West 380 437 29,500 -918 Descending FlightAware ADS-B
Thu 09:39:58 PM 34.1850 -115.5850 259° West 373 429 28,800 -933 Descending FlightAware ADS-B
Thu 09:40:38 PM 34.1710 -115.6680 258° West 370 426 28,100 -900 Descending FlightAware ADS-B
Thu 09:41:18 PM 34.1580 -115.7470 259° West 368 423 27,600 -918 Descending FlightAware ADS-B
Thu 09:42:03 PM 34.1430 -115.8400 259° West 366 421 26,800 -1,059 Descending FlightAware ADS-B
Thu 09:42:43 PM 34.1310 -115.9210 260° West 366 421 26,100 -975 Descending FlightAware ADS-B
Thu 09:43:23 PM 34.1180 -116.0020 259° West 364 419 25,500 -988 Descending FlightAware ADS-B
Thu 09:44:08 PM 34.1040 -116.0900 259° West 365 420 24,700 -1,059 Descending FlightAware ADS-B
Thu 09:44:48 PM 34.0920 -116.1680 259° West 364 419 24,000 -494 Descending FlightAware ADS-B
Thu 09:45:33 PM 34.0770 -116.2620 259° West 373 429 24,000  Level FlightAware ADS-B
Thu 09:46:13 PM 34.0650 -116.3430 260° West 372 428 24,000  Level FlightAware ADS-B
Thu 09:46:58 PM 34.0500 -116.4330 259° West 366 421 24,000  Level FlightAware ADS-B
Thu 09:47:38 PM 34.0380 -116.5130 260° West 365 420 24,000  Level FlightAware ADS-B
Thu 09:48:18 PM 34.0240 -116.5940 258° West 397 457 24,000 -71 Level FlightAware ADS-B
Thu 09:49:03 PM 34.0090 -116.6940 260° West 402 463 23,900 -1,129 Descending FlightAware ADS-B
Thu 09:49:43 PM 33.9940 -116.7810 258° West 384 442 22,400 -2,541 Descending FlightAware ADS-B
Thu 09:50:28 PM 33.9800 -116.8710 259° West 355 409 20,300 -2,753 Descending FlightAware ADS-B
Thu 09:51:08 PM 33.9670 -116.9480 259° West 352 405 18,500 -2,325 Descending FlightAware ADS-B
Thu 09:51:48 PM 33.9550 -117.0250 259° West 361 415 17,200 -988 Descending FlightAware ADS-B
Thu 09:52:33 PM 33.9400 -117.1160 259° West 355 409 17,100 -71 Descending FlightAware ADS-B
Thu 09:53:13 PM 33.9330 -117.1950 264° West 360 414 17,100 -300 Level FlightAware ADS-B
Thu 09:53:53 PM 33.9270 -117.2740 265° West 352 405 16,700 -1,482 Descending FlightAware ADS-B
Thu 09:54:38 PM 33.9200 -117.3550 264° West 340 391 15,000 -2,118 Descending FlightAware ADS-B
Thu 09:55:18 PM 33.9380 -117.4290 286° West 317 365 13,700 -1,624 Descending FlightAware ADS-B
Thu 09:56:03 PM 33.9640 -117.5010 294° West 301 346 12,700 -1,341 Descending FlightAware ADS-B
Thu 09:56:43 PM 33.9850 -117.5600 293° West 299 344 11,800 -1,350 Descending FlightAware ADS-B
Thu 09:57:23 PM 33.9980 -117.6260 283° West 300 345 10,900 -1,129 Descending FlightAware ADS-B
Thu 09:58:08 PM 33.9920 -117.7000 264° West 297 342 10,200 -943 Descending FlightAware ADS-B
Thu 09:58:33 PM 33.9870 -117.7410 262° West 297 342 9,800 -764 Descending FlightAware ADS-B
Thu 09:59:03 PM 33.9820 -117.7910 263° West 295 339 9,500 -900 Descending FlightAware ADS-B
Thu 09:59:33 PM 33.9770 -117.8400 263° West 290 334 8,900 -1,418 Descending FlightAware ADS-B
Thu 09:59:58 PM 33.9730 -117.8780 263° West 283 326 8,200 -1,636 Descending FlightAware ADS-B
Thu 10:00:28 PM 33.9690 -117.9230 264° West 277 319 7,400 -1,600 Descending FlightAware ADS-B
Thu 10:00:43 PM 33.9670 -117.9470 264° West 262 302 7,000 -1,350 Descending FlightAware ADS-B
Thu 10:01:08 PM 33.9630 -117.9820 262° West 249 287 6,500 -1,200 Descending FlightAware ADS-B
Thu 10:01:38 PM 33.9590 -118.0220 263° West 243 280 5,900 -1,200 Descending FlightAware ADS-B
Thu 10:02:03 PM 33.9550 -118.0570 262° West 237 273 5,400 -1,091 Descending FlightAware ADS-B
Thu 10:02:33 PM 33.9520 -118.0930 264° West 208 239 4,900 -982 Descending FlightAware ADS-B
Thu 10:02:58 PM 33.9490 -118.1210 263° West 203 234 4,500 -982 Descending FlightAware ADS-B
Thu 10:03:28 PM 33.9450 -118.1550 262° West 198 228 4,000 -1,000 Descending FlightAware ADS-B
Thu 10:03:58 PM 33.9420 -118.1870 264° West 202 232 3,500 -1,091 Descending FlightAware ADS-B
Thu 10:04:23 PM 33.9390 -118.2160 263° West 196 226 3,000 -1,050 Descending FlightAware ADS-B
Thu 10:04:38 PM 33.9380 -118.2300 265° West 196 226 2,800 -1,067 Descending FlightAware ADS-B
Thu 10:05:08 PM 33.9340 -118.2630 262° West 186 214 2,200 -982 Descending FlightAware ADS-B
Thu 10:05:33 PM 33.9320 -118.2850 264° West 166 191 1,900 -857 Descending FlightAware ADS-B
Thu 10:05:43 PM 33.9310 -118.2950 263° West 159 183 1,700 -343 Descending FlightAware ADS-B
Thu 10:06:08 PM 33.9280 -118.3160 260° West 159 183 1,700  Level FlightAware ADS-B

Login

Don't have an account? Register now (free) for customized features, flight alerts, and more!